Time;durP1;ratioP1;P1;durP2;ratioP2;P2;SDS_P1;SDS_P2;PMS_P1;PMS_P2;Temp;Humidity;BMP_temperature;BMP_pressure;BME280_temperature;BME280_humidity;BME280_pressure;Samples;Min_cycle;Max_cycle;Signal;HPM_P1;HPM_P2
2024/04/06 00:01:23;;;;;;;1.43;1.33;;;16.10;99.90;;;;;;5072026;28;20519;-72
2024/04/06 00:03:49;;;;;;;1.10;1.00;;;16.00;99.90;;;;;;5071448;28;20479;-72
2024/04/06 00:06:14;;;;;;;2.23;1.17;;;16.00;99.90;;;;;;5071812;28;20171;-71
2024/04/06 00:08:41;;;;;;;1.73;1.20;;;15.90;99.90;;;;;;5067584;28;20514;-72
2024/04/06 00:11:08;;;;;;;2.80;1.00;;;15.90;99.90;;;;;;5070710;28;20577;-72
2024/04/06 00:13:33;;;;;;;2.83;1.20;;;16.00;99.90;;;;;;5071655;28;20488;-71
2024/04/06 00:15:59;;;;;;;1.57;1.40;;;15.90;99.90;;;;;;5071662;28;20890;-71
2024/04/06 00:18:24;;;;;;;1.37;1.27;;;15.90;99.90;;;;;;5071465;28;20177;-71
2024/04/06 00:20:50;;;;;;;1.57;1.23;;;15.80;99.90;;;;;;5071804;28;20194;-72
2024/04/06 00:23:15;;;;;;;1.60;1.20;;;15.90;99.90;;;;;;5071716;28;20174;-71
2024/04/06 00:25:41;;;;;;;2.00;1.70;;;15.90;99.90;;;;;;5071603;28;20165;-71
2024/04/06 00:28:06;;;;;;;5.47;1.47;;;15.90;99.90;;;;;;5071079;28;20444;-71
2024/04/06 00:30:33;;;;;;;1.30;1.10;;;16.00;99.90;;;;;;5071793;28;20178;-72
2024/04/06 00:32:58;;;;;;;1.30;1.20;;;15.90;99.90;;;;;;5071798;28;20169;-71
2024/04/06 00:35:24;;;;;;;1.97;1.80;;;15.90;99.90;;;;;;5071797;28;20479;-72
2024/04/06 00:37:50;;;;;;;4.23;1.60;;;15.80;99.90;;;;;;5071487;28;20266;-72
2024/04/06 00:40:16;;;;;;;1.37;1.27;;;15.80;99.90;;;;;;5071539;28;20193;-71
2024/04/06 00:42:41;;;;;;;2.80;1.33;;;15.80;99.90;;;;;;5071575;28;20421;-71
2024/04/06 00:45:08;;;;;;;2.90;1.93;;;15.70;99.90;;;;;;5071487;28;20375;-72
2024/04/06 00:47:34;;;;;;;2.20;1.13;;;15.70;99.90;;;;;;5071738;28;20590;-72
2024/04/06 00:50:00;;;;;;;1.40;1.30;;;15.70;99.90;;;;;;5071084;28;20428;-71
2024/04/06 00:52:25;;;;;;;1.43;1.27;;;15.70;99.90;;;;;;5071364;28;20396;-71
2024/04/06 00:54:51;;;;;;;3.53;1.50;;;15.70;99.90;;;;;;5071309;28;20170;-72
2024/04/06 00:57:17;;;;;;;3.20;1.80;;;15.70;99.90;;;;;;5071006;28;20216;-72
2024/04/06 00:59:43;;;;;;;4.27;1.73;;;15.70;99.90;;;;;;5071133;28;20190;-71
2024/04/06 01:02:08;;;;;;;2.80;1.60;;;15.60;99.90;;;;;;5071501;28;20668;-71
2024/04/06 01:04:34;;;;;;;1.47;1.27;;;15.60;99.90;;;;;;5071245;28;20408;-71
2024/04/06 01:07:00;;;;;;;1.27;1.17;;;15.50;99.90;;;;;;5071586;28;20590;-71
2024/04/06 01:09:25;;;;;;;2.00;1.30;;;15.50;99.90;;;;;;5065762;28;20727;-72
2024/04/06 01:11:51;;;;;;;2.50;1.07;;;15.50;99.90;;;;;;5072902;28;20174;-72
2024/04/06 01:14:16;;;;;;;1.60;1.30;;;15.50;99.90;;;;;;5074909;28;20173;-71
2024/04/06 01:16:43;;;;;;;2.50;1.30;;;15.60;99.90;;;;;;5057178;28;20166;-72
2024/04/06 01:19:09;;;;;;;1.50;1.40;;;15.50;99.90;;;;;;5075017;28;20283;-72
2024/04/06 01:21:34;;;;;;;2.27;1.40;;;15.50;99.90;;;;;;5057328;28;20444;-72
2024/04/06 01:24:05;;;;;;;3.37;1.53;;;15.40;99.90;;;;;;5075228;28;20174;-72
2024/04/06 01:26:31;;;;;;;1.40;1.30;;;15.30;99.90;;;;;;5075263;28;20166;-72
2024/04/06 01:28:57;;;;;;;2.03;1.60;;;15.10;99.90;;;;;;5074462;28;20853;-73
2024/04/06 01:31:22;;;;;;;2.23;1.70;;;15.00;99.90;;;;;;5057267;28;20262;-72
2024/04/06 01:33:51;;;;;;;2.10;1.80;;;15.00;99.90;;;;;;5075005;28;20194;-72
2024/04/06 01:36:16;;;;;;;2.17;2.07;;;14.90;99.90;;;;;;5074924;28;20245;-71
2024/04/06 01:38:42;;;;;;;5.20;2.10;;;14.70;99.90;;;;;;5074790;28;20516;-72
2024/04/06 01:41:08;;;;;;;2.67;2.23;;;14.60;99.90;;;;;;5056865;28;20665;-71
2024/04/06 01:43:33;;;;;;;1.33;1.20;;;14.60;99.90;;;;;;5075164;28;20248;-72
2024/04/06 01:45:59;;;;;;;1.63;1.30;;;14.60;99.90;;;;;;5074677;28;20170;-72
2024/04/06 01:48:24;;;;;;;1.60;1.30;;;14.60;99.90;;;;;;5074533;28;20206;-72
2024/04/06 01:50:50;;;;;;;1.57;1.47;;;14.50;99.90;;;;;;5074558;28;20265;-71
2024/04/06 01:53:15;;;;;;;2.20;1.87;;;14.50;99.90;;;;;;5074455;28;20373;-72
2024/04/06 01:55:41;;;;;;;1.67;1.57;;;14.40;99.90;;;;;;5056701;28;20467;-72
2024/04/06 01:58:06;;;;;;;4.87;2.60;;;14.30;99.90;;;;;;5074232;28;20173;-71
2024/04/06 02:00:32;;;;;;;3.37;2.23;;;14.30;99.90;;;;;;5074400;28;20198;-71
2024/04/06 02:02:57;;;;;;;3.23;2.43;;;14.20;99.90;;;;;;5074471;28;20182;-72
2024/04/06 02:05:23;;;;;;;3.03;1.90;;;14.20;99.90;;;;;;5074556;28;20170;-71
2024/04/06 02:07:48;;;;;;;3.67;1.87;;;14.10;99.90;;;;;;5055906;28;20209;-71
2024/04/06 02:10:14;;;;;;;3.57;2.40;;;14.00;99.90;;;;;;5068186;28;20210;-71
2024/04/06 02:12:39;;;;;;;2.03;1.83;;;14.00;99.90;;;;;;5074034;28;20184;-72
2024/04/06 02:15:05;;;;;;;2.70;1.60;;;14.00;99.90;;;;;;5074273;28;20173;-71
2024/04/06 02:17:31;;;;;;;1.80;1.60;;;13.90;99.90;;;;;;5074409;28;20193;-71
2024/04/06 02:19:56;;;;;;;2.20;1.87;;;13.90;99.90;;;;;;5073767;28;20432;-71
2024/04/06 02:22:22;;;;;;;2.20;1.97;;;13.80;99.90;;;;;;5073954;28;20177;-72
2024/04/06 02:24:47;;;;;;;2.63;2.43;;;13.80;99.90;;;;;;5073391;28;20166;-71
2024/04/06 02:27:13;;;;;;;2.50;2.30;;;13.80;99.90;;;;;;5073772;28;20166;-71
2024/04/06 02:29:39;;;;;;;4.87;2.57;;;13.70;99.90;;;;;;5073562;28;20584;-72
2024/04/06 02:32:05;;;;;;;9.33;2.90;;;13.60;99.90;;;;;;5073988;28;20237;-71
2024/04/06 02:34:31;;;;;;;2.90;2.43;;;13.50;99.90;;;;;;5073753;28;20405;-72
2024/04/06 02:36:56;;;;;;;3.00;1.87;;;13.50;99.90;;;;;;5073663;28;20396;-70
2024/04/06 02:39:22;;;;;;;3.50;2.27;;;13.40;99.90;;;;;;5073244;28;20186;-71
2024/04/06 02:41:48;;;;;;;2.20;2.00;;;13.40;99.90;;;;;;5073383;28;20461;-72
2024/04/06 02:44:13;;;;;;;3.57;2.77;;;13.40;99.90;;;;;;5073380;28;20507;-71
2024/04/06 02:46:39;;;;;;;2.70;1.77;;;13.40;99.90;;;;;;5073653;28;20701;-72
2024/04/06 02:49:04;;;;;;;5.13;2.90;;;13.30;99.90;;;;;;5073195;28;20202;-72
2024/04/06 02:51:30;;;;;;;6.03;2.23;;;13.30;99.90;;;;;;5073478;28;20170;-71
2024/04/06 02:53:55;;;;;;;4.13;2.30;;;13.20;99.90;;;;;;5073294;28;20162;-72
2024/04/06 02:56:21;;;;;;;3.93;2.10;;;13.10;99.90;;;;;;5073551;28;20170;-72
2024/04/06 02:58:47;;;;;;;2.53;1.93;;;13.10;99.90;;;;;;5072828;28;20177;-72
2024/04/06 03:01:13;;;;;;;3.10;2.17;;;13.00;99.90;;;;;;5073265;28;20205;-72
2024/04/06 03:03:38;;;;;;;3.90;2.20;;;13.00;99.90;;;;;;5073456;28;20162;-71
2024/04/06 03:06:04;;;;;;;6.70;2.00;;;13.00;99.90;;;;;;5073354;28;20413;-72
2024/04/06 03:08:29;;;;;;;2.97;2.17;;;12.90;99.90;;;;;;5069427;28;20200;-72
2024/04/06 03:10:55;;;;;;;4.00;2.30;;;12.90;99.90;;;;;;5053214;28;20182;-71
2024/04/06 03:13:21;;;;;;;3.73;2.40;;;13.00;99.90;;;;;;5073046;28;20162;-71
2024/04/06 03:15:46;;;;;;;4.43;2.27;;;12.90;99.90;;;;;;5073217;28;20400;-72
2024/04/06 03:18:12;;;;;;;3.60;2.47;;;12.90;99.90;;;;;;5072879;28;20245;-71
2024/04/06 03:20:38;;;;;;;4.30;2.50;;;12.90;99.90;;;;;;5055020;28;20657;-72
2024/04/06 03:23:05;;;;;;;2.70;2.33;;;12.80;99.90;;;;;;5072765;28;20162;-71
2024/04/06 03:25:32;;;;;;;5.63;2.53;;;12.90;99.90;;;;;;5073040;28;20487;-72
2024/04/06 03:27:58;;;;;;;2.53;2.33;;;12.80;99.90;;;;;;5072403;28;20487;-71
2024/04/06 03:30:25;;;;;;;3.50;2.50;;;12.90;99.90;;;;;;5073009;28;20452;-71
2024/04/06 03:32:51;;;;;;;2.73;2.10;;;12.80;99.90;;;;;;5072904;28;20648;-72
2024/04/06 03:35:18;;;;;;;3.90;2.03;;;12.90;99.90;;;;;;5072058;28;20761;-72
2024/04/06 03:37:47;;;;;;;2.53;2.00;;;12.90;99.90;;;;;;5072641;28;20397;-71
2024/04/06 03:40:12;;;;;;;3.57;1.90;;;12.90;99.90;;;;;;5072380;28;20428;-71
2024/04/06 03:42:38;;;;;;;2.17;1.97;;;12.90;99.90;;;;;;5072660;28;20423;-71
2024/04/06 03:45:04;;;;;;;2.60;2.00;;;13.00;99.90;;;;;;5072527;28;20637;-71
2024/04/06 03:47:30;;;;;;;1.60;1.50;;;13.10;99.90;;;;;;5072672;28;20236;-72
2024/04/06 03:49:55;;;;;;;1.57;1.47;;;13.10;99.90;;;;;;5071825;28;20455;-71
2024/04/06 03:52:21;;;;;;;2.60;1.60;;;13.20;99.90;;;;;;5071701;28;20166;-72
2024/04/06 03:54:46;;;;;;;2.00;1.80;;;13.20;99.90;;;;;;5072411;28;20162;-71
2024/04/06 03:57:12;;;;;;;3.10;2.40;;;13.10;99.90;;;;;;5072394;28;20174;-71
2024/04/06 03:59:37;;;;;;;3.00;2.80;;;13.10;99.90;;;;;;5072085;28;20259;-71
2024/04/06 04:02:03;;;;;;;3.70;2.30;;;13.10;99.90;;;;;;5072334;28;20218;-71
2024/04/06 04:04:29;;;;;;;3.50;2.50;;;13.10;99.90;;;;;;5072239;28;20484;-71
2024/04/06 04:06:54;;;;;;;4.50;3.00;;;13.10;99.90;;;;;;5072122;28;20178;-72
2024/04/06 04:09:20;;;;;;;2.50;2.30;;;13.10;99.90;;;;;;5065747;28;20221;-71
2024/04/06 04:11:45;;;;;;;4.23;2.73;;;13.10;99.90;;;;;;5069713;28;20205;-72
2024/04/06 04:14:11;;;;;;;3.10;2.57;;;13.10;99.90;;;;;;5071901;28;20257;-71
2024/04/06 04:16:36;;;;;;;4.33;3.57;;;13.20;99.90;;;;;;5071907;28;20197;-71
2024/04/06 04:19:02;;;;;;;4.70;3.37;;;13.30;99.90;;;;;;5071405;28;20185;-71
2024/04/06 04:21:28;;;;;;;5.67;3.63;;;13.30;99.90;;;;;;5062584;28;20280;-71
2024/04/06 04:23:55;;;;;;;3.43;3.13;;;13.20;99.90;;;;;;5066183;28;20209;-72
2024/04/06 04:26:21;;;;;;;6.27;3.73;;;13.20;99.90;;;;;;5071732;28;20791;-71
2024/04/06 04:28:47;;;;;;;3.47;3.17;;;13.20;99.90;;;;;;5071479;28;20444;-71
2024/04/06 04:31:17;;;;;;;8.23;4.20;;;13.20;99.90;;;;;;5053876;28;20420;-72
2024/04/06 04:33:43;;;;;;;7.20;3.43;;;13.20;99.90;;;;;;5071765;28;20514;-71
2024/04/06 04:36:10;;;;;;;3.67;3.37;;;13.20;99.90;;;;;;5071823;28;20495;-72
2024/04/06 04:38:36;;;;;;;4.13;3.27;;;13.10;99.90;;;;;;5071609;28;20408;-71
2024/04/06 04:41:02;;;;;;;6.30;3.60;;;13.10;99.90;;;;;;5071598;28;20776;-71
2024/04/06 04:43:28;;;;;;;4.27;3.40;;;13.10;99.90;;;;;;5071738;28;20173;-72
2024/04/06 04:45:54;;;;;;;5.43;3.00;;;13.10;99.90;;;;;;5071625;28;20404;-71
2024/04/06 04:48:20;;;;;;;3.83;2.50;;;13.20;99.90;;;;;;5071291;28;20455;-71
2024/04/06 04:50:45;;;;;;;3.33;2.83;;;13.20;99.90;;;;;;5071488;28;20182;-71
2024/04/06 04:53:11;;;;;;;4.33;2.70;;;13.20;99.90;;;;;;5053843;28;20533;-72
2024/04/06 04:55:37;;;;;;;2.83;2.63;;;13.20;99.90;;;;;;5071543;28;20199;-72
2024/04/06 04:58:03;;;;;;;2.57;2.33;;;13.20;99.90;;;;;;5071405;28;20166;-71
2024/04/06 05:00:29;;;;;;;3.77;2.90;;;13.20;99.90;;;;;;5053316;28;20448;-71
2024/04/06 05:02:55;;;;;;;3.53;2.30;;;13.20;99.90;;;;;;5071489;28;20478;-72
2024/04/06 05:05:21;;;;;;;2.47;2.27;;;13.20;99.90;;;;;;5051647;28;20174;-72
2024/04/06 05:07:46;;;;;;;2.70;2.47;;;13.20;99.90;;;;;;5061978;28;20417;-71
2024/04/06 05:10:12;;;;;;;3.00;2.70;;;13.10;99.90;;;;;;5065282;28;20681;-72
2024/04/06 05:12:37;;;;;;;7.97;3.13;;;13.10;99.90;;;;;;5071247;28;20185;-71
2024/04/06 05:15:03;;;;;;;3.53;2.70;;;13.10;99.90;;;;;;5071278;28;20166;-72
2024/04/06 05:17:29;;;;;;;5.97;3.27;;;13.10;99.90;;;;;;5071142;28;20445;-71
2024/04/06 05:19:54;;;;;;;3.73;3.23;;;13.10;99.90;;;;;;5071114;28;20425;-71
2024/04/06 05:22:20;;;;;;;3.60;2.10;;;13.20;99.90;;;;;;5071372;28;20534;-71
2024/04/06 05:24:45;;;;;;;3.10;2.90;;;13.20;99.90;;;;;;5071417;28;20170;-71
2024/04/06 05:27:11;;;;;;;6.00;3.27;;;13.20;99.90;;;;;;5071431;28;20240;-72
2024/04/06 05:29:37;;;;;;;4.13;2.80;;;13.30;99.90;;;;;;5070914;28;20606;-72
2024/04/06 05:32:03;;;;;;;5.80;3.00;;;13.40;99.90;;;;;;5071223;28;20162;-72
2024/04/06 05:34:29;;;;;;;4.00;3.10;;;13.50;99.90;;;;;;5071122;28;20641;-72
2024/04/06 05:36:54;;;;;;;4.27;2.77;;;13.60;99.90;;;;;;5071191;28;20645;-72
2024/04/06 05:39:20;;;;;;;3.43;3.03;;;13.80;99.90;;;;;;5070962;28;20432;-72
2024/04/06 05:41:46;;;;;;;3.00;2.70;;;14.10;99.90;;;;;;5071283;28;20193;-72
2024/04/06 05:44:12;;;;;;;3.20;2.50;;;14.40;99.90;;;;;;5071117;28;20902;-72
2024/04/06 05:46:38;;;;;;;4.97;3.00;;;14.60;99.90;;;;;;5071183;28;20491;-71
2024/04/06 05:49:05;;;;;;;3.30;3.00;;;14.70;99.90;;;;;;5070818;28;20194;-72
2024/04/06 05:51:34;;;;;;;3.57;2.70;;;14.90;99.90;;;;;;5071153;28;20182;-72
2024/04/06 05:54:03;;;;;;;2.93;2.33;;;14.90;99.90;;;;;;5071238;28;20677;-72
2024/04/06 05:56:29;;;;;;;3.30;2.53;;;15.00;99.90;;;;;;5066670;28;20405;-72
2024/04/06 05:58:55;;;;;;;3.30;2.37;;;14.90;99.90;;;;;;5072089;28;20972;-72
2024/04/06 06:01:21;;;;;;;4.10;2.53;;;15.00;99.90;;;;;;5074376;28;20189;-72
2024/04/06 06:03:47;;;;;;;2.43;2.23;;;15.10;99.90;;;;;;5074369;28;20166;-72
2024/04/06 06:06:13;;;;;;;2.07;1.80;;;15.10;99.90;;;;;;5074612;28;20984;-72
2024/04/06 06:08:39;;;;;;;3.30;2.20;;;15.20;99.90;;;;;;5070857;28;20244;-72
2024/04/06 06:11:05;;;;;;;3.50;2.40;;;15.20;99.90;;;;;;5054275;28;20952;-72
2024/04/06 06:13:32;;;;;;;2.23;2.03;;;15.20;99.90;;;;;;5074169;28;20167;-72
2024/04/06 06:15:58;;;;;;;3.83;2.17;;;15.20;99.90;;;;;;5074258;28;20404;-72
2024/04/06 06:18:24;;;;;;;2.03;1.83;;;15.40;99.90;;;;;;5074115;28;20993;-75
2024/04/06 06:20:49;;;;;;;2.10;1.90;;;15.60;99.90;;;;;;5066971;28;20586;-72
2024/04/06 06:23:15;;;;;;;3.27;2.80;;;15.90;99.90;;;;;;5064181;28;20217;-72
2024/04/06 06:25:40;;;;;;;2.43;2.13;;;16.30;99.90;;;;;;5074513;28;20567;-72
2024/04/06 06:28:06;;;;;;;3.43;3.13;;;16.80;99.90;;;;;;5074193;28;20204;-72
2024/04/06 06:30:31;;;;;;;2.27;2.07;;;17.20;99.90;;;;;;5056405;28;20190;-72
2024/04/06 06:32:57;;;;;;;2.83;2.53;;;17.60;99.90;;;;;;5056429;28;20262;-71
2024/04/06 06:35:23;;;;;;;2.60;1.90;;;18.00;99.90;;;;;;5074308;28;20163;-71
2024/04/06 06:37:49;;;;;;;2.90;2.60;;;18.20;99.90;;;;;;5070736;28;20416;-71
2024/04/06 06:40:14;;;;;;;2.13;1.93;;;18.70;99.90;;;;;;5071749;28;20648;-72
2024/04/06 06:42:40;;;;;;;5.73;2.20;;;18.80;99.90;;;;;;5074215;28;20633;-72
2024/04/06 06:45:05;;;;;;;3.37;3.07;;;19.30;99.90;;;;;;5073735;28;20171;-72
2024/04/06 06:47:35;;;;;;;3.40;1.80;;;19.60;99.90;;;;;;5055865;28;20177;-71
2024/04/06 06:50:00;;;;;;;1.87;1.70;;;19.90;99.90;;;;;;5073387;28;20202;-72
2024/04/06 06:52:26;;;;;;;2.43;1.77;;;20.50;99.90;;;;;;5074129;28;20405;-72
2024/04/06 06:54:51;;;;;;;2.60;2.03;;;21.20;99.90;;;;;;5074166;28;20202;-72
2024/04/06 06:57:17;;;;;;;2.43;1.77;;;21.70;99.90;;;;;;5073727;28;20167;-71
2024/04/06 06:59:42;;;;;;;1.80;1.70;;;22.30;99.90;;;;;;5073292;28;20205;-70
2024/04/06 07:02:08;;;;;;;2.93;2.63;;;22.70;99.90;;;;;;5073675;28;20182;-70
2024/04/06 07:04:36;;;;;;;4.97;2.17;;;23.10;99.90;;;;;;5073408;28;20170;-70
2024/04/06 07:07:01;;;;;;;5.27;2.57;;;23.40;99.90;;;;;;5073444;28;20232;-69
2024/04/06 07:09:28;;;;;;;2.80;1.80;;;23.60;99.90;;;;;;5071751;28;20985;-68
2024/04/06 07:11:53;;;;;;;2.67;1.90;;;23.90;99.90;;;;;;5073074;28;20166;-69
2024/04/06 07:14:19;;;;;;;1.83;1.70;;;24.40;96.10;;;;;;5073239;28;20409;-68
2024/04/06 07:16:44;;;;;;;4.23;1.97;;;24.80;92.30;;;;;;5073161;28;20170;-70
2024/04/06 07:19:11;;;;;;;4.33;2.10;;;25.30;88.70;;;;;;5054983;28;20202;-69
2024/04/06 07:21:36;;;;;;;3.57;3.20;;;25.40;80.90;;;;;;5066359;28;20170;-69
2024/04/06 07:24:02;;;;;;;2.50;1.87;;;25.50;77.40;;;;;;5072937;28;20478;-70
2024/04/06 07:26:28;;;;;;;2.80;2.50;;;25.90;72.20;;;;;;5072939;28;20177;-68
2024/04/06 07:28:54;;;;;;;2.13;1.77;;;26.20;70.50;;;;;;5069746;28;20459;-67
2024/04/06 07:31:19;;;;;;;2.53;1.80;;;26.30;68.00;;;;;;5072694;28;20205;-69
2024/04/06 07:33:45;;;;;;;2.77;2.10;;;27.10;65.30;;;;;;5072578;28;20249;-68
2024/04/06 07:36:11;;;;;;;3.00;1.90;;;27.30;59.70;;;;;;5072687;28;20221;-68
2024/04/06 07:38:36;;;;;;;2.43;2.00;;;27.00;58.90;;;;;;5072375;28;20169;-67
2024/04/06 07:41:03;;;;;;;1.90;1.80;;;27.70;58.30;;;;;;5054767;28;20229;-68
2024/04/06 07:43:29;;;;;;;1.90;1.80;;;28.30;56.50;;;;;;5072610;28;20158;-69
2024/04/06 07:45:55;;;;;;;2.50;1.77;;;29.10;53.90;;;;;;5072590;28;20878;-68
2024/04/06 07:48:21;;;;;;;1.77;1.60;;;29.20;50.30;;;;;;5072132;28;20711;-69
2024/04/06 07:50:47;;;;;;;2.50;1.50;;;29.80;47.00;;;;;;5072326;28;20513;-69
2024/04/06 07:53:13;;;;;;;2.07;1.40;;;29.40;43.60;;;;;;5072691;28;20462;-69
2024/04/06 07:55:38;;;;;;;2.00;1.80;;;29.30;43.50;;;;;;5072429;28;20397;-69
2024/04/06 07:58:04;;;;;;;4.13;2.40;;;29.70;42.10;;;;;;5072099;28;20181;-69
2024/04/06 08:00:30;;;;;;;1.70;1.60;;;29.40;41.50;;;;;;5072190;28;20286;-68
2024/04/06 08:02:55;;;;;;;4.13;2.07;;;29.30;41.30;;;;;;5072244;28;20220;-69
2024/04/06 08:05:21;;;;;;;3.10;2.90;;;29.30;41.70;;;;;;5072346;28;20578;-69
2024/04/06 08:07:46;;;;;;;1.73;1.60;;;28.80;40.80;;;;;;5054178;28;20247;-68
2024/04/06 08:10:17;;;;;;;2.57;1.93;;;29.20;41.60;;;;;;5071880;28;20194;-68
2024/04/06 08:12:44;;;;;;;1.60;1.50;;;28.90;40.30;;;;;;5072057;28;20181;-68
2024/04/06 08:15:10;;;;;;;1.70;1.60;;;29.40;41.20;;;;;;5070068;28;20452;-68
2024/04/06 08:17:41;;;;;;;3.47;1.83;;;29.60;40.00;;;;;;5058108;28;20423;-68
2024/04/06 08:20:07;;;;;;;2.63;1.50;;;29.50;39.40;;;;;;5071326;28;20927;-69
2024/04/06 08:22:33;;;;;;;1.63;1.40;;;29.60;38.90;;;;;;5047102;28;20477;-68
2024/04/06 08:24:59;;;;;;;2.50;1.80;;;30.10;38.70;;;;;;5059655;28;20416;-68
2024/04/06 08:27:24;;;;;;;4.63;1.67;;;29.50;38.00;;;;;;5071640;28;20533;-68
2024/04/06 08:29:50;;;;;;;1.97;1.70;;;29.50;38.20;;;;;;5071451;28;20202;-69
2024/04/06 08:32:17;;;;;;;1.80;1.50;;;29.80;38.80;;;;;;5071918;28;20162;-68
2024/04/06 08:34:43;;;;;;;1.77;1.57;;;30.20;38.30;;;;;;5071891;28;20439;-69
2024/04/06 08:37:08;;;;;;;1.70;1.60;;;30.30;38.00;;;;;;5071849;28;20447;-68
2024/04/06 08:39:34;;;;;;;1.73;1.60;;;30.10;37.50;;;;;;5071361;28;20224;-68
2024/04/06 08:42:02;;;;;;;1.40;1.30;;;29.60;37.30;;;;;;5066917;28;20186;-69
2024/04/06 08:44:43;;;;;;;1.73;1.20;;;29.30;37.40;;;;;;5071971;28;20174;-68
2024/04/06 08:47:14;;;;;;;2.30;1.97;;;29.40;37.60;;;;;;5071712;28;21044;-68
2024/04/06 08:49:43;;;;;;;1.47;1.37;;;29.40;37.50;;;;;;5071313;28;20464;-69
2024/04/06 08:52:10;;;;;;;1.67;1.57;;;30.30;37.80;;;;;;5071792;28;20415;-68
2024/04/06 08:54:37;;;;;;;2.60;1.40;;;31.30;36.50;;;;;;5071782;28;20404;-69
2024/04/06 08:57:04;;;;;;;2.30;1.40;;;31.80;34.80;;;;;;5071605;28;20500;-69
2024/04/06 08:59:30;;;;;;;1.63;1.30;;;31.90;33.60;;;;;;5071363;28;20429;-68
2024/04/06 09:01:55;;;;;;;2.03;1.57;;;32.40;33.50;;;;;;5071626;28;20427;-68
2024/04/06 09:04:22;;;;;;;2.03;1.83;;;32.30;32.50;;;;;;5071634;28;20405;-69
2024/04/06 09:06:47;;;;;;;1.53;1.43;;;32.10;32.00;;;;;;5071620;28;20212;-69
2024/04/06 09:09:13;;;;;;;2.47;1.53;;;32.60;32.70;;;;;;5071211;28;20970;-69
2024/04/06 09:11:39;;;;;;;1.70;1.50;;;32.80;32.20;;;;;;5071651;28;20173;-69
2024/04/06 09:14:05;;;;;;;2.67;1.47;;;33.50;32.10;;;;;;5071655;28;20577;-69
2024/04/06 09:16:33;;;;;;;1.87;1.33;;;34.00;31.40;;;;;;5071412;28;20470;-69
2024/04/06 09:18:58;;;;;;;2.00;1.60;;;34.40;30.00;;;;;;5071174;28;20448;-69
2024/04/06 09:21:24;;;;;;;1.70;1.60;;;35.10;30.00;;;;;;5063748;28;20516;-68
2024/04/06 09:23:55;;;;;;;2.43;2.20;;;34.50;28.30;;;;;;5061840;28;20178;-69
2024/04/06 09:26:22;;;;;;;2.00;1.90;;;34.30;28.80;;;;;;5059916;28;20175;-69
2024/04/06 09:28:52;;;;;;;2.90;1.20;;;34.80;29.40;;;;;;5070847;28;20480;-69
2024/04/06 09:31:23;;;;;;;2.23;1.93;;;35.40;28.90;;;;;;5071367;28;20396;-69
2024/04/06 09:33:52;;;;;;;2.27;1.23;;;35.80;28.70;;;;;;5074693;28;20450;-69
2024/04/06 09:36:19;;;;;;;2.97;1.40;;;36.80;28.70;;;;;;5075136;28;20400;-69
2024/04/06 09:38:47;;;;;;;2.00;1.30;;;38.30;28.50;;;;;;5074872;28;20429;-70
2024/04/06 09:41:17;;;;;;;1.20;1.10;;;37.90;26.50;;;;;;5075134;28;20491;-69
2024/04/06 09:43:44;;;;;;;1.70;1.57;;;38.10;26.80;;;;;;5075027;28;20408;-69
2024/04/06 09:46:11;;;;;;;1.10;1.00;;;37.70;26.40;;;;;;5074914;28;20396;-69
2024/04/06 09:48:41;;;;;;;2.27;1.43;;;37.00;26.60;;;;;;5074702;28;20538;-69
2024/04/06 09:51:07;;;;;;;1.30;1.20;;;36.50;27.10;;;;;;5074944;28;20424;-69
2024/04/06 09:53:34;;;;;;;2.07;1.50;;;35.60;27.10;;;;;;5075038;28;20408;-69
2024/04/06 09:56:01;;;;;;;1.23;1.13;;;35.30;28.00;;;;;;5075078;28;20596;-69
2024/04/06 09:58:28;;;;;;;1.83;1.17;;;35.80;28.20;;;;;;5056843;28;20412;-69
2024/04/06 10:00:56;;;;;;;1.87;1.37;;;35.40;27.80;;;;;;5074374;28;20466;-69
2024/04/06 10:03:32;;;;;;;2.03;1.70;;;34.70;27.70;;;;;;5074704;28;20404;-69
2024/04/06 10:06:11;;;;;;;4.63;1.50;;;34.40;27.40;;;;;;5074728;28;20404;-69
2024/04/06 10:08:50;;;;;;;3.00;1.23;;;33.40;28.20;;;;;;5074775;28;20447;-69
2024/04/06 10:11:23;;;;;;;6.20;2.07;;;32.80;28.90;;;;;;5075041;28;20910;-70
2024/04/06 10:13:59;;;;;;;3.63;1.60;;;32.60;29.30;;;;;;5074564;28;20415;-69
2024/04/06 10:16:33;;;;;;;2.03;1.33;;;32.30;29.60;;;;;;5074563;28;20892;-69
2024/04/06 10:19:00;;;;;;;6.10;2.23;;;31.40;29.10;;;;;;5074109;28;20407;-69
2024/04/06 10:21:36;;;;;;;2.07;1.97;;;31.00;29.70;;;;;;5074366;28;20554;-69
2024/04/06 10:24:09;;;;;;;2.20;2.00;;;31.20;30.20;;;;;;5056289;28;20420;-69
2024/04/06 10:26:35;;;;;;;2.27;1.90;;;32.70;30.40;;;;;;5074398;28;20490;-69
2024/04/06 10:29:02;;;;;;;2.10;1.90;;;34.50;29.40;;;;;;5073743;28;20452;-69
2024/04/06 10:31:28;;;;;;;2.33;2.07;;;34.80;28.40;;;;;;5074334;28;20408;-69
2024/04/06 10:33:53;;;;;;;1.60;1.50;;;33.50;28.00;;;;;;5074065;28;20458;-69
2024/04/06 10:36:19;;;;;;;3.90;3.40;;;32.00;28.30;;;;;;5074169;28;20176;-69
2024/04/06 10:38:45;;;;;;;4.17;2.17;;;31.20;29.00;;;;;;5055827;28;20641;-68
2024/04/06 10:41:10;;;;;;;1.83;1.73;;;31.40;29.80;;;;;;5073943;28;20202;-68
2024/04/06 10:43:36;;;;;;;2.80;1.70;;;32.50;29.70;;;;;;5074021;28;20174;-69
2024/04/06 10:46:02;;;;;;;3.20;2.07;;;33.90;28.50;;;;;;5074009;28;20173;-69
2024/04/06 10:48:29;;;;;;;3.73;1.47;;;35.10;27.90;;;;;;5073577;28;20187;-69
2024/04/06 10:50:55;;;;;;;7.03;1.57;;;36.30;26.90;;;;;;5073633;28;20427;-69
2024/04/06 10:53:25;;;;;;;1.63;1.20;;;36.90;25.40;;;;;;5073723;28;20408;-69
2024/04/06 10:55:52;;;;;;;4.13;1.30;;;37.90;25.40;;;;;;5073714;28;20407;-69
2024/04/06 10:58:18;;;;;;;2.27;1.20;;;39.10;25.00;;;;;;5073769;28;20888;-69
2024/04/06 11:00:45;;;;;;;6.47;1.60;;;39.20;23.80;;;;;;5073454;28;20448;-69
2024/04/06 11:03:11;;;;;;;4.50;1.60;;;39.10;23.40;;;;;;5073811;28;20602;-70
2024/04/06 11:05:38;;;;;;;1.60;1.50;;;39.00;23.30;;;;;;5073465;28;20404;-70
2024/04/06 11:08:04;;;;;;;3.67;1.47;;;39.30;23.80;;;;;;5073105;28;20166;-69
2024/04/06 11:10:30;;;;;;;9.70;1.40;;;39.50;23.30;;;;;;5073314;28;20419;-69
2024/04/06 11:12:57;;;;;;;8.50;1.83;;;38.90;22.80;;;;;;5073351;28;20904;-69
2024/04/06 11:15:24;;;;;;;2.10;1.40;;;38.60;23.10;;;;;;5073352;28;20432;-69
2024/04/06 11:17:50;;;;;;;4.40;1.30;;;38.80;22.70;;;;;;5073154;28;20981;-69
2024/04/06 11:20:16;;;;;;;1.87;1.20;;;38.80;22.80;;;;;;5072859;28;20421;-69
2024/04/06 11:22:45;;;;;;;1.37;1.20;;;38.40;22.20;;;;;;5073113;28;20228;-69
2024/04/06 11:25:18;;;;;;;2.07;1.20;;;37.70;22.40;;;;;;5073193;28;20450;-69
2024/04/06 11:27:52;;;;;;;1.33;1.13;;;36.70;23.00;;;;;;5072909;28;20408;-69
2024/04/06 11:30:18;;;;;;;1.27;1.17;;;36.60;23.70;;;;;;5072966;28;20456;-69
2024/04/06 11:32:48;;;;;;;2.40;1.17;;;36.50;23.50;;;;;;5073106;28;20942;-69
2024/04/06 11:35:14;;;;;;;2.50;1.60;;;36.50;23.30;;;;;;5055043;28;20405;-69
2024/04/06 11:37:39;;;;;;;2.80;1.67;;;36.90;24.10;;;;;;5072853;28;20400;-69
2024/04/06 11:40:06;;;;;;;4.90;1.30;;;37.50;24.40;;;;;;5072465;28;20186;-69
2024/04/06 11:42:31;;;;;;;1.40;1.30;;;38.30;23.90;;;;;;5072852;28;20522;-70
2024/04/06 11:44:57;;;;;;;1.67;1.57;;;38.60;23.10;;;;;;5072836;28;20438;-69
2024/04/06 11:47:22;;;;;;;2.07;1.50;;;39.60;23.20;;;;;;5054746;28;20177;-69
2024/04/06 11:49:49;;;;;;;3.43;1.80;;;40.50;23.10;;;;;;5072323;28;20259;-69
2024/04/06 11:52:14;;;;;;;1.73;1.43;;;41.00;22.00;;;;;;5072587;28;20212;-69
2024/04/06 11:54:42;;;;;;;2.60;1.57;;;40.70;21.60;;;;;;5071974;28;20412;-69
2024/04/06 11:57:07;;;;;;;1.93;1.20;;;40.40;22.30;;;;;;5072411;28;20193;-69
2024/04/06 11:59:33;;;;;;;1.90;1.10;;;40.60;22.30;;;;;;5072109;28;20421;-70
2024/04/06 12:01:58;;;;;;;1.80;1.70;;;40.90;22.30;;;;;;5072563;28;20201;-69
2024/04/06 12:04:24;;;;;;;1.50;1.40;;;40.50;20.90;;;;;;5072995;28;20568;-69
2024/04/06 12:06:51;;;;;;;1.53;1.43;;;40.70;21.90;;;;;;5072444;28;20189;-69
2024/04/06 12:09:17;;;;;;;1.43;1.30;;;40.10;21.60;;;;;;5071871;28;20206;-68
2024/04/06 12:11:43;;;;;;;1.73;1.10;;;39.40;21.40;;;;;;5072125;28;20486;-68
2024/04/06 12:14:08;;;;;;;1.40;1.30;;;38.40;21.30;;;;;;5072380;28;20558;-68
2024/04/06 12:16:34;;;;;;;1.77;1.23;;;37.40;22.00;;;;;;5072302;28;20158;-69
2024/04/06 12:19:00;;;;;;;2.40;1.63;;;37.10;22.60;;;;;;5071902;28;20166;-69
2024/04/06 12:21:26;;;;;;;3.07;1.53;;;37.90;23.60;;;;;;5072061;28;20166;-69
2024/04/06 12:23:51;;;;;;;1.13;1.00;;;39.10;23.20;;;;;;5072032;28;20441;-70
2024/04/06 12:26:17;;;;;;;2.20;1.73;;;40.00;22.20;;;;;;5071933;28;20447;-69
2024/04/06 12:28:43;;;;;;;1.73;1.47;;;41.00;21.80;;;;;;5071696;28;20190;-69
2024/04/06 12:31:09;;;;;;;1.77;1.67;;;41.50;21.90;;;;;;5071780;28;20205;-69
2024/04/06 12:33:36;;;;;;;1.30;1.00;;;41.10;20.60;;;;;;5071899;28;20405;-69
2024/04/06 12:36:03;;;;;;;1.90;1.43;;;40.60;20.30;;;;;;5071886;28;20519;-69
2024/04/06 12:38:28;;;;;;;2.17;1.20;;;40.60;20.90;;;;;;5071855;28;20483;-69
2024/04/06 12:40:55;;;;;;;1.97;1.30;;;40.30;21.00;;;;;;5071770;28;20444;-69
2024/04/06 12:43:21;;;;;;;1.20;1.10;;;40.30;21.10;;;;;;5071705;28;20162;-69